createdAt,value
2022-10-28T00:01:47.184Z,90.36
2022-10-28T00:04:14.562Z,89.97
2022-10-28T00:06:43.268Z,89.59
2022-10-28T00:09:12.261Z,89.81
2022-10-28T00:11:39.783Z,89.91
2022-10-28T00:14:07.923Z,90.07
2022-10-28T00:16:37.292Z,90.13
2022-10-28T00:19:06.489Z,90.39
2022-10-28T00:21:36.485Z,90.11
2022-10-28T00:24:06.788Z,90.48
2022-10-28T00:26:36.600Z,90.14
2022-10-28T00:29:06.329Z,90.58
2022-10-28T00:31:34.948Z,90.51
2022-10-28T00:34:05.009Z,90.67
2022-10-28T00:36:34.513Z,90.71
2022-10-28T00:39:04.849Z,90.17
2022-10-28T00:41:35.093Z,90.62
2022-10-28T00:44:18.967Z,90.53
2022-10-28T00:46:49.341Z,90.27
2022-10-28T00:49:21.347Z,89.98
2022-10-28T00:51:53.507Z,90.08
2022-10-28T00:54:23.997Z,90.21
2022-10-28T00:56:53.710Z,90.19
2022-10-28T00:59:27.321Z,90.41
2022-10-28T01:01:55.056Z,90.29
2022-10-28T01:04:23.137Z,90.15
2022-10-28T01:06:50.809Z,90.34
2022-10-28T01:09:18.170Z,90.09
2022-10-28T01:12:09.457Z,90.33
2022-10-28T01:14:51.460Z,89.99
2022-10-28T01:17:36.580Z,89.36
2022-10-28T01:20:48.324Z,90.01
2022-10-28T01:23:22.034Z,89.96
2022-10-28T01:26:23.943Z,89.17
2022-10-28T01:29:11.994Z,89.77
2022-10-28T01:31:46.342Z,89.45
2022-10-28T01:34:22.173Z,89.82
2022-10-28T01:36:58.009Z,89.63
2022-10-28T01:39:32.831Z,89.62
2022-10-28T01:42:08.726Z,89.44
2022-10-28T01:44:43.692Z,89.35
2022-10-28T01:47:16.339Z,90.52
2022-10-28T01:49:52.440Z,89.86
2022-10-28T01:52:23.653Z,90.17
2022-10-28T01:55:02.386Z,90.14
2022-10-28T01:57:31.849Z,90.19
2022-10-28T02:00:00.907Z,89.31
2022-10-28T02:02:33.249Z,90.09
2022-10-28T02:05:22.687Z,89.56
2022-10-28T02:07:54.355Z,89.96
2022-10-28T02:10:33.079Z,89.07
2022-10-28T02:13:07.861Z,89.31
2022-10-28T02:15:46.916Z,89.91
2022-10-28T02:18:27.312Z,89.68
2022-10-28T02:21:00.497Z,89.49
2022-10-28T02:23:38.811Z,90.13
2022-10-28T02:26:13.068Z,89.17
2022-10-28T02:28:47.999Z,89.82
2022-10-28T02:31:22.845Z,90.08
2022-10-28T02:33:55.788Z,89.58
2022-10-28T02:36:24.811Z,90.47
2022-10-28T02:38:55.148Z,90.04
2022-10-28T02:41:27.149Z,90.43
2022-10-28T02:43:59.496Z,90.41
2022-10-28T02:46:29.825Z,90.48
2022-10-28T02:49:03.149Z,89.82
2022-10-28T02:51:35.478Z,90.08
2022-10-28T02:54:09.217Z,90.54
2022-10-28T02:56:40.781Z,89.82
2022-10-28T02:59:11.326Z,89.72
2022-10-28T03:01:39.295Z,89.70
2022-10-28T03:04:08.412Z,89.21
2022-10-28T03:06:35.820Z,89.14
2022-10-28T03:09:03.568Z,90.02
2022-10-28T03:11:30.911Z,89.94
2022-10-28T03:13:58.114Z,89.58
2022-10-28T03:16:28.243Z,89.39
2022-10-28T03:18:55.944Z,90.21
2022-10-28T03:21:24.618Z,89.39
2022-10-28T03:23:51.944Z,89.23
2022-10-28T03:26:19.368Z,90.23
2022-10-28T03:28:47.062Z,90.24
2022-10-28T03:31:15.342Z,89.67
2022-10-28T03:33:42.660Z,89.57
2022-10-28T03:36:10.035Z,89.52
2022-10-28T03:38:38.623Z,89.10
2022-10-28T03:41:06.182Z,89.14
2022-10-28T03:43:33.403Z,89.33
2022-10-28T03:46:00.643Z,89.64
2022-10-28T03:48:27.987Z,89.52
2022-10-28T03:50:55.386Z,90.55
2022-10-28T03:53:25.251Z,90.26
2022-10-28T03:55:59.347Z,90.68
2022-10-28T03:58:27.627Z,90.36
2022-10-28T04:00:55.930Z,90.30
2022-10-28T04:03:24.707Z,90.48
2022-10-28T04:05:52.059Z,90.76
2022-10-28T04:08:20.462Z,90.86
2022-10-28T04:10:47.882Z,90.82
2022-10-28T04:13:17.450Z,90.31
2022-10-28T04:15:44.742Z,90.55
2022-10-28T04:18:12.411Z,90.87
2022-10-28T04:20:40.189Z,90.86
2022-10-28T04:23:08.583Z,91.39
2022-10-28T04:25:35.815Z,91.52
2022-10-28T04:28:03.382Z,91.10
2022-10-28T04:30:32.251Z,91.34
2022-10-28T04:32:59.547Z,91.53
2022-10-28T04:35:27.002Z,90.60
2022-10-28T04:37:54.369Z,90.65
2022-10-28T04:40:21.756Z,90.21
2022-10-28T04:42:48.906Z,90.16
2022-10-28T04:45:16.454Z,90.56
2022-10-28T04:47:45.107Z,90.40
2022-10-28T04:50:12.320Z,90.92
2022-10-28T04:52:39.468Z,91.45
2022-10-28T04:55:07.245Z,90.60
2022-10-28T04:57:34.517Z,90.60
2022-10-28T05:00:01.721Z,91.29
2022-10-28T05:02:31.998Z,91.03
2022-10-28T05:05:03.680Z,90.15
2022-10-28T05:07:31.566Z,90.53
2022-10-28T05:09:58.949Z,89.98
2022-10-28T05:12:26.116Z,90.68
2022-10-28T05:14:53.380Z,90.51
2022-10-28T05:17:20.718Z,89.88
2022-10-28T05:19:48.088Z,90.57
2022-10-28T05:22:16.900Z,89.95
2022-10-28T05:24:44.116Z,91.00
2022-10-28T05:27:12.928Z,90.86
2022-10-28T05:29:40.050Z,90.75
2022-10-28T05:32:07.387Z,90.31
2022-10-28T05:34:34.995Z,90.20
2022-10-28T05:37:02.341Z,90.22
2022-10-28T05:39:31.045Z,91.08
2022-10-28T05:41:58.429Z,91.35
2022-10-28T05:44:25.801Z,91.28
2022-10-28T05:46:54.271Z,90.52
2022-10-28T05:49:21.643Z,90.78
2022-10-28T05:51:49.036Z,90.25
2022-10-28T05:54:16.512Z,90.24
2022-10-28T05:56:45.119Z,90.63
2022-10-28T05:59:12.384Z,90.01
2022-10-28T06:01:39.997Z,90.54
2022-10-28T06:04:07.290Z,90.90
2022-10-28T06:06:34.531Z,91.04
2022-10-28T06:09:01.823Z,91.25
2022-10-28T06:11:27.641Z,91.75
2022-10-28T06:13:56.428Z,92.03
2022-10-28T06:16:23.898Z,91.43
2022-10-28T06:18:51.512Z,90.99
2022-10-28T06:21:18.820Z,91.22
2022-10-28T06:23:46.932Z,91.40
2022-10-28T06:26:14.097Z,91.46
2022-10-28T06:28:42.300Z,90.72
2022-10-28T06:31:10.925Z,91.26
2022-10-28T06:33:38.290Z,91.02
2022-10-28T06:36:06.458Z,90.54
2022-10-28T06:38:33.698Z,91.27
2022-10-28T06:41:01.149Z,90.72
2022-10-28T06:43:28.542Z,91.66
2022-10-28T06:45:59.304Z,91.55
2022-10-28T06:48:29.955Z,91.47
2022-10-28T06:50:58.205Z,91.39
2022-10-28T06:53:25.533Z,91.93
2022-10-28T06:55:53.731Z,92.16
2022-10-28T06:58:21.360Z,91.44
2022-10-28T07:00:48.785Z,92.04
2022-10-28T07:03:16.706Z,92.06
2022-10-28T07:05:46.039Z,91.90
2022-10-28T07:08:14.569Z,92.90
2022-10-28T07:10:42.361Z,93.25
2022-10-28T07:13:09.528Z,92.44
2022-10-28T07:15:36.676Z,92.06
2022-10-28T07:18:04.116Z,92.61
2022-10-28T07:20:33.095Z,92.04
2022-10-28T07:23:02.911Z,92.21
2022-10-28T07:25:31.280Z,91.74
2022-10-28T07:27:58.857Z,92.76
2022-10-28T07:30:26.258Z,92.53
2022-10-28T07:32:54.392Z,92.38
2022-10-28T07:35:21.907Z,91.72
2022-10-28T07:37:49.464Z,91.95
2022-10-28T07:40:18.870Z,92.64
2022-10-28T07:42:46.166Z,92.91
2022-10-28T07:45:13.717Z,92.66
2022-10-28T07:47:41.311Z,93.12
2022-10-28T07:50:10.209Z,92.91
2022-10-28T07:52:38.205Z,92.05
2022-10-28T07:55:07.860Z,92.29
2022-10-28T07:57:36.957Z,91.86
2022-10-28T08:00:06.791Z,92.07
2022-10-28T08:02:40.313Z,92.00
2022-10-28T08:05:08.266Z,91.78
2022-10-28T08:07:38.459Z,92.37
2022-10-28T08:10:07.872Z,91.88
2022-10-28T08:12:36.620Z,91.44
2022-10-28T08:15:04.558Z,92.08
2022-10-28T08:17:32.215Z,91.76
2022-10-28T08:19:59.470Z,91.70
2022-10-28T08:22:26.873Z,91.53
2022-10-28T08:24:54.336Z,91.32
2022-10-28T08:27:21.850Z,91.70
2022-10-28T08:29:50.525Z,91.03
2022-10-28T08:32:17.897Z,91.24
2022-10-28T08:34:45.142Z,91.50
2022-10-28T08:37:12.495Z,90.90
2022-10-28T08:39:39.914Z,91.22
2022-10-28T08:42:24.410Z,91.17
2022-10-28T08:45:03.317Z,90.82
2022-10-28T08:47:43.033Z,91.24
2022-10-28T08:50:14.556Z,91.56
2022-10-28T08:52:46.623Z,90.88
2022-10-28T08:55:19.008Z,90.95
2022-10-28T08:57:51.088Z,90.83
2022-10-28T09:00:23.416Z,91.39
2022-10-28T09:03:03.970Z,91.17
2022-10-28T09:05:31.372Z,91.38
2022-10-28T09:07:59.255Z,91.30
2022-10-28T09:10:44.907Z,91.44
2022-10-28T09:13:17.893Z,91.33
2022-10-28T09:15:55.925Z,91.04
2022-10-28T09:18:37.268Z,91.24
2022-10-28T09:21:13.274Z,91.14
2022-10-28T09:23:46.621Z,90.74
2022-10-28T09:26:20.815Z,90.95
2022-10-28T09:29:00.530Z,90.57
2022-10-28T09:31:35.926Z,91.21
2022-10-28T09:34:17.796Z,91.20
2022-10-28T09:36:50.064Z,90.93
2022-10-28T09:39:37.942Z,90.76
2022-10-28T09:42:05.639Z,90.72
2022-10-28T09:44:41.509Z,90.94
2022-10-28T09:47:17.188Z,90.53
2022-10-28T09:49:47.781Z,91.08
2022-10-28T09:52:19.640Z,90.91
2022-10-28T09:54:50.721Z,90.52
2022-10-28T09:57:18.582Z,90.32
2022-10-28T09:59:46.344Z,90.04
2022-10-28T10:02:27.500Z,89.77
2022-10-28T10:04:56.048Z,89.56
2022-10-28T10:07:31.973Z,89.15
2022-10-28T10:10:01.439Z,89.07
2022-10-28T10:12:33.554Z,89.13
2022-10-28T10:15:02.495Z,89.59
2022-10-28T10:17:39.350Z,89.38
2022-10-28T10:20:08.304Z,89.29
2022-10-28T10:22:37.377Z,89.49
2022-10-28T10:25:30.010Z,89.66
2022-10-28T10:28:01.155Z,89.71
2022-10-28T10:30:33.235Z,89.37
2022-10-28T10:33:03.239Z,89.20
2022-10-28T10:35:32.377Z,89.14
2022-10-28T10:38:02.059Z,89.16
2022-10-28T10:40:33.750Z,88.95
2022-10-28T10:43:22.392Z,88.94
2022-10-28T10:45:52.939Z,88.92
2022-10-28T10:48:22.044Z,88.69
2022-10-28T10:50:50.879Z,88.78
2022-10-28T10:53:24.597Z,88.61
2022-10-28T10:55:55.257Z,88.35
2022-10-28T10:58:25.339Z,88.33
2022-10-28T11:00:55.113Z,88.26
2022-10-28T11:03:28.436Z,88.24
2022-10-28T11:08:45.613Z,88.24
2022-10-28T11:11:18.816Z,87.89
2022-10-28T11:13:47.239Z,87.92
2022-10-28T11:16:19.452Z,87.81
2022-10-28T11:18:49.837Z,87.70
2022-10-28T11:21:49.440Z,87.74
2022-10-28T11:24:43.613Z,87.75
2022-10-28T11:27:23.784Z,87.61
2022-10-28T11:29:51.442Z,87.56
2022-10-28T11:32:32.242Z,87.56
2022-10-28T11:35:47.208Z,87.36
2022-10-28T11:38:45.417Z,87.55
2022-10-28T11:41:23.212Z,87.20
2022-10-28T11:43:55.269Z,87.16
2022-10-28T11:46:42.763Z,86.93
2022-10-28T11:49:41.400Z,87.01
2022-10-28T11:52:23.014Z,86.26
2022-10-28T11:55:03.805Z,86.87
2022-10-28T11:57:40.869Z,86.70
2022-10-28T12:00:28.009Z,86.52
2022-10-28T12:03:12.853Z,86.37
2022-10-28T12:05:47.270Z,86.25
2022-10-28T12:08:32.957Z,86.11
2022-10-28T12:11:10.841Z,86.14
2022-10-28T12:13:48.005Z,85.96
2022-10-28T12:16:22.176Z,86.10
2022-10-28T12:18:54.883Z,85.88
2022-10-28T12:21:29.111Z,85.97
2022-10-28T12:23:58.590Z,86.07
2022-10-28T12:26:35.213Z,86.00
2022-10-28T12:29:05.445Z,86.02
2022-10-28T12:31:38.218Z,85.93
2022-10-28T12:34:11.773Z,86.18
2022-10-28T12:36:43.589Z,86.35
2022-10-28T12:39:18.703Z,86.34
2022-10-28T12:41:56.509Z,86.26
2022-10-28T12:44:26.327Z,86.68
2022-10-28T12:47:01.867Z,86.86
2022-10-28T12:49:39.919Z,86.74
2022-10-28T12:52:18.083Z,86.78
2022-10-28T12:54:55.684Z,86.53
2022-10-28T12:57:25.772Z,86.87
2022-10-28T12:59:59.027Z,87.00
2022-10-28T13:02:31.565Z,87.03
2022-10-28T13:04:59.304Z,86.98
2022-10-28T13:08:03.233Z,87.08
2022-10-28T13:10:40.508Z,86.97
2022-10-28T13:13:24.702Z,86.92
2022-10-28T13:16:03.537Z,86.93
2022-10-28T13:19:05.996Z,86.79
2022-10-28T13:21:54.256Z,86.94
2022-10-28T13:24:29.666Z,87.26
2022-10-28T13:26:57.660Z,87.19
2022-10-28T13:29:29.444Z,87.29
2022-10-28T13:31:57.122Z,87.27
2022-10-28T13:34:32.221Z,87.18
2022-10-28T13:37:03.540Z,87.25
2022-10-28T13:39:43.579Z,87.14
2022-10-28T13:42:32.655Z,87.29
2022-10-28T13:45:03.623Z,87.08
2022-10-28T13:47:33.341Z,87.41
2022-10-28T13:50:40.674Z,87.31
2022-10-28T13:53:52.138Z,87.42
2022-10-28T13:56:29.967Z,87.19
2022-10-28T13:59:00.006Z,87.31
2022-10-28T14:01:56.741Z,87.49
2022-10-28T14:04:37.996Z,87.30
2022-10-28T14:07:21.856Z,87.32
2022-10-28T14:09:53.690Z,87.41
2022-10-28T14:12:27.798Z,87.70
2022-10-28T14:15:05.063Z,87.82
2022-10-28T14:17:39.388Z,87.83
2022-10-28T14:20:24.855Z,88.05
2022-10-28T14:22:53.305Z,88.06
2022-10-28T14:25:59.907Z,88.36
2022-10-28T14:28:54.710Z,88.38
2022-10-28T14:31:40.930Z,88.04
2022-10-28T14:34:34.302Z,88.15
2022-10-28T14:37:19.035Z,87.92
2022-10-28T14:40:02.472Z,88.25
2022-10-28T14:42:45.997Z,87.92
2022-10-28T14:45:26.857Z,88.31
2022-10-28T14:48:17.765Z,88.98
2022-10-28T14:50:48.156Z,89.02
2022-10-28T14:53:20.579Z,89.05
2022-10-28T14:55:51.147Z,89.40
2022-10-28T14:58:21.819Z,89.88
2022-10-28T15:01:00.748Z,90.28
2022-10-28T15:03:27.886Z,90.71
2022-10-28T15:05:56.588Z,90.56
2022-10-28T15:08:24.792Z,90.84
2022-10-28T15:10:52.357Z,90.81
2022-10-28T15:13:20.399Z,91.06
2022-10-28T15:15:57.365Z,91.12
2022-10-28T15:18:26.781Z,91.28
2022-10-28T15:21:10.315Z,91.22
2022-10-28T15:23:37.806Z,91.45
2022-10-28T15:26:06.054Z,91.74
2022-10-28T15:28:33.614Z,92.24
2022-10-28T15:31:00.990Z,92.21
2022-10-28T15:33:30.971Z,92.13
2022-10-28T15:36:17.592Z,92.82
2022-10-28T15:38:46.572Z,92.93
2022-10-28T15:41:43.311Z,93.02
2022-10-28T15:44:32.625Z,93.14
2022-10-28T15:47:02.546Z,93.10
2022-10-28T15:49:36.138Z,93.24
2022-10-28T15:52:35.559Z,93.33
2022-10-28T15:55:26.776Z,94.15
2022-10-28T15:58:24.072Z,94.16
2022-10-28T16:00:52.743Z,94.36
2022-10-28T16:03:26.308Z,94.08
2022-10-28T16:05:55.728Z,93.99
2022-10-28T16:08:27.195Z,94.39
2022-10-28T16:11:00.680Z,94.64
2022-10-28T16:13:31.730Z,94.38
2022-10-28T16:16:03.402Z,94.38
2022-10-28T16:18:34.978Z,94.79
2022-10-28T16:21:04.968Z,94.90
2022-10-28T16:23:39.541Z,94.94
2022-10-28T16:26:09.403Z,94.88
2022-10-28T16:28:38.033Z,94.99
2022-10-28T16:31:05.982Z,95.14
2022-10-28T16:33:35.261Z,95.26
2022-10-28T16:36:03.262Z,95.25
2022-10-28T16:38:31.451Z,94.86
2022-10-28T16:41:01.172Z,95.22
2022-10-28T16:43:29.855Z,95.33
2022-10-28T16:45:58.779Z,95.30
2022-10-28T16:48:28.486Z,95.21
2022-10-28T16:50:59.260Z,95.58
2022-10-28T16:53:26.592Z,95.38
2022-10-28T16:55:59.279Z,95.21
2022-10-28T16:58:29.334Z,95.46
2022-10-28T17:00:56.952Z,95.39
2022-10-28T17:03:24.408Z,95.30
2022-10-28T17:05:51.918Z,95.67
2022-10-28T17:08:36.124Z,95.59
2022-10-28T17:11:06.582Z,95.46
2022-10-28T17:13:35.616Z,95.63
2022-10-28T17:16:02.850Z,95.51
2022-10-28T17:18:30.250Z,95.42
2022-10-28T17:21:01.302Z,95.56
2022-10-28T17:23:29.206Z,95.25
2022-10-28T17:25:57.196Z,95.57
2022-10-28T17:28:24.667Z,95.59
2022-10-28T17:30:53.985Z,95.72
2022-10-28T17:33:21.344Z,95.57
2022-10-28T17:35:49.081Z,95.67
2022-10-28T17:38:16.618Z,95.62
2022-10-28T17:40:44.130Z,95.50
2022-10-28T17:43:11.799Z,95.79
2022-10-28T17:45:39.385Z,95.42
2022-10-28T17:48:08.286Z,95.62
2022-10-28T17:50:35.748Z,95.52
2022-10-28T17:53:03.138Z,95.40
2022-10-28T17:55:30.468Z,95.33
2022-10-28T17:57:58.111Z,95.43
2022-10-28T18:00:25.945Z,95.35
2022-10-28T18:02:55.522Z,95.42
2022-10-28T18:05:24.467Z,95.46
2022-10-28T18:07:55.246Z,95.68
2022-10-28T18:10:22.750Z,95.63
2022-10-28T18:12:51.066Z,95.38
2022-10-28T18:15:18.294Z,95.88
2022-10-28T18:17:49.444Z,95.37
2022-10-28T18:20:16.901Z,95.97
2022-10-28T18:22:45.513Z,95.93
2022-10-28T18:25:12.849Z,96.05
2022-10-28T18:27:41.376Z,96.25
2022-10-28T18:30:09.801Z,96.18
2022-10-28T18:32:37.002Z,96.16
2022-10-28T18:35:04.818Z,96.13
2022-10-28T18:37:32.146Z,96.46
2022-10-28T18:40:00.866Z,96.35
2022-10-28T18:42:29.212Z,96.26
2022-10-28T18:44:58.761Z,96.32
2022-10-28T18:47:26.193Z,96.48
2022-10-28T18:49:54.523Z,96.46
2022-10-28T18:52:21.814Z,96.50
2022-10-28T18:54:49.225Z,96.51
2022-10-28T18:57:19.362Z,96.40
2022-10-28T19:00:16.763Z,96.49
2022-10-28T19:02:33.845Z,96.56
2022-10-28T19:05:01.192Z,96.83
2022-10-28T19:07:29.749Z,96.65
2022-10-28T19:09:56.986Z,96.63
2022-10-28T19:12:25.651Z,96.90
2022-10-28T19:14:52.982Z,96.75
2022-10-28T19:17:20.359Z,96.73
2022-10-28T19:19:49.269Z,96.94
2022-10-28T19:22:16.557Z,96.75
2022-10-28T19:24:43.972Z,96.94
2022-10-28T19:27:12.171Z,96.90
2022-10-28T19:29:40.915Z,96.79
2022-10-28T19:32:08.295Z,97.08
2022-10-28T19:34:35.529Z,97.09
2022-10-28T19:37:02.815Z,97.24
2022-10-28T19:39:30.153Z,97.18
2022-10-28T19:41:57.901Z,97.07
2022-10-28T19:44:25.162Z,97.20
2022-10-28T19:46:53.744Z,97.42
2022-10-28T19:49:23.832Z,97.15
2022-10-28T19:51:53.464Z,97.26
2022-10-28T19:54:20.825Z,97.33
2022-10-28T19:56:49.202Z,97.31
2022-10-28T19:59:16.978Z,97.25
2022-10-28T20:01:44.489Z,97.45
2022-10-28T20:04:13.220Z,97.14
2022-10-28T20:06:41.101Z,97.21
2022-10-28T20:09:08.649Z,97.19
2022-10-28T20:11:38.248Z,97.39
2022-10-28T20:14:09.052Z,97.36
2022-10-28T20:16:36.786Z,97.34
2022-10-28T20:19:04.324Z,97.43
2022-10-28T20:21:34.396Z,97.32
2022-10-28T20:24:04.409Z,97.43
2022-10-28T20:26:34.293Z,97.30
2022-10-28T20:29:03.143Z,97.37
2022-10-28T20:31:31.902Z,97.36
2022-10-28T20:34:01.655Z,97.42
2022-10-28T20:36:30.333Z,97.23
2022-10-28T20:39:01.269Z,97.42
2022-10-28T20:41:30.617Z,97.43
2022-10-28T20:43:58.432Z,97.35
2022-10-28T20:46:26.963Z,97.45
2022-10-28T20:48:54.425Z,97.50
2022-10-28T20:51:22.907Z,97.63
2022-10-28T20:53:50.951Z,97.45
2022-10-28T20:56:21.470Z,97.49
2022-10-28T20:58:48.654Z,97.45
2022-10-28T21:01:18.799Z,97.70
2022-10-28T21:03:46.825Z,97.57
2022-10-28T21:06:16.165Z,97.50
2022-10-28T21:08:43.645Z,97.91
2022-10-28T21:11:13.278Z,97.66
2022-10-28T21:13:42.722Z,97.43
2022-10-28T21:16:11.929Z,97.67
2022-10-28T21:18:39.787Z,97.46
2022-10-28T21:21:07.566Z,97.70
2022-10-28T21:23:34.856Z,97.58
2022-10-28T21:26:04.230Z,97.70
2022-10-28T21:28:33.034Z,97.99
2022-10-28T21:31:02.635Z,97.78
2022-10-28T21:33:30.160Z,97.96
2022-10-28T21:35:58.844Z,97.83
2022-10-28T21:38:28.278Z,97.92
2022-10-28T21:40:59.799Z,97.92
2022-10-28T21:43:28.889Z,98.09
2022-10-28T21:45:56.303Z,98.04
2022-10-28T21:48:26.510Z,98.00
2022-10-28T21:50:54.999Z,98.05
2022-10-28T21:53:22.865Z,97.94
2022-10-28T21:55:51.329Z,98.09
2022-10-28T21:58:19.322Z,98.05
2022-10-28T22:00:46.830Z,98.04
2022-10-28T22:03:14.466Z,98.06
2022-10-28T22:05:50.776Z,98.08
2022-10-28T22:08:18.107Z,98.12
2022-10-28T22:10:45.349Z,98.21
2022-10-28T22:13:12.736Z,98.21
2022-10-28T22:15:39.949Z,98.26
2022-10-28T22:18:07.212Z,98.17
2022-10-28T22:20:34.437Z,98.31
2022-10-28T22:23:03.131Z,98.37
2022-10-28T22:25:30.324Z,98.16
2022-10-28T22:27:57.512Z,98.39
2022-10-28T22:30:24.813Z,98.35
2022-10-28T22:32:52.321Z,98.07
2022-10-28T22:35:19.775Z,98.57
2022-10-28T22:37:47.219Z,98.45
2022-10-28T22:40:15.993Z,98.58
2022-10-28T22:42:43.266Z,98.65
2022-10-28T22:45:10.721Z,98.48
2022-10-28T22:47:37.979Z,98.51
2022-10-28T22:50:05.949Z,98.68
2022-10-28T22:52:33.260Z,98.35
2022-10-28T22:55:00.491Z,98.58
2022-10-28T22:57:29.258Z,98.61
2022-10-28T22:59:56.619Z,98.51
2022-10-28T23:02:24.140Z,98.45
2022-10-28T23:04:51.557Z,98.42
2022-10-28T23:07:18.819Z,98.64
2022-10-28T23:09:46.192Z,98.54
2022-10-28T23:12:13.808Z,98.54
2022-10-28T23:14:42.480Z,98.50
2022-10-28T23:17:09.729Z,98.52
2022-10-28T23:19:36.917Z,98.50
2022-10-28T23:22:04.373Z,98.37
2022-10-28T23:24:31.624Z,98.72
2022-10-28T23:26:59.096Z,98.59
2022-10-28T23:29:26.371Z,98.72
2022-10-28T23:31:55.134Z,98.67
2022-10-28T23:34:22.658Z,98.84
2022-10-28T23:36:54.125Z,98.47
2022-10-28T23:39:21.960Z,98.78
2022-10-28T23:41:49.563Z,98.66
2022-10-28T23:44:17.142Z,98.74
2022-10-28T23:46:44.513Z,98.70
2022-10-28T23:49:13.175Z,98.70
2022-10-28T23:51:40.453Z,98.75
2022-10-28T23:54:07.836Z,98.80
2022-10-28T23:56:35.116Z,98.81
2022-10-28T23:59:02.399Z,98.75
